Time;durP1;ratioP1;P1;durP2;ratioP2;P2;SDS_P1;SDS_P2;PMS_P1;PMS_P2;Temp;Humidity;BMP_temperature;BMP_pressure;BME280_temperature;BME280_humidity;BME280_pressure;Samples;Min_cycle;Max_cycle;Signal;HPM_P1;HPM_P2
2023/03/22 00:01:31;;;;;;;22.95;12.00;;;9.90;99.90;;;;;;4957088;28;20053;-61
2023/03/22 00:03:58;;;;;;;21.42;10.55;;;9.80;99.90;;;;;;4962016;28;20080;-61
2023/03/22 00:06:24;;;;;;;20.42;10.18;;;9.80;99.90;;;;;;4966286;28;20082;-61
2023/03/22 00:08:52;;;;;;;20.80;10.68;;;9.80;99.90;;;;;;4958253;28;20057;-62
2023/03/22 00:11:19;;;;;;;24.45;9.50;;;9.80;99.90;;;;;;4958106;28;20112;-62
2023/03/22 00:13:46;;;;;;;24.10;9.98;;;9.80;99.90;;;;;;4941666;28;20058;-62
2023/03/22 00:16:13;;;;;;;20.38;9.55;;;9.80;99.90;;;;;;4959515;28;20055;-62
2023/03/22 00:18:40;;;;;;;17.45;9.20;;;9.80;99.90;;;;;;4954349;28;20054;-62
2023/03/22 00:21:11;;;;;;;20.27;9.82;;;9.80;99.90;;;;;;4962000;28;20057;-61
2023/03/22 00:23:37;;;;;;;21.67;10.13;;;9.80;99.90;;;;;;4963066;28;20054;-62
2023/03/22 00:26:03;;;;;;;21.13;9.48;;;9.80;99.90;;;;;;4944633;28;20046;-62
2023/03/22 00:28:29;;;;;;;19.48;8.65;;;9.80;99.90;;;;;;4959099;28;20117;-62
2023/03/22 00:31:00;;;;;;;20.55;8.57;;;9.80;99.90;;;;;;4959463;28;20046;-62
2023/03/22 00:33:27;;;;;;;19.10;8.23;;;9.70;99.90;;;;;;4957706;28;20052;-62
2023/03/22 00:35:58;;;;;;;19.83;7.80;;;9.70;99.90;;;;;;4952117;28;20065;-63
2023/03/22 00:38:25;;;;;;;14.05;6.65;;;9.70;99.90;;;;;;4932403;28;20042;-61
2023/03/22 00:40:51;;;;;;;14.85;6.10;;;9.70;99.90;;;;;;4944147;28;20528;-61
2023/03/22 00:43:16;;;;;;;15.52;7.30;;;9.70;99.90;;;;;;4963626;28;20112;-62
2023/03/22 00:45:42;;;;;;;17.50;7.25;;;9.70;99.90;;;;;;4957618;28;20529;-63
2023/03/22 00:48:10;;;;;;;16.63;6.53;;;9.70;99.90;;;;;;4946675;28;20055;-63
2023/03/22 00:50:37;;;;;;;13.50;6.47;;;9.70;99.90;;;;;;4952329;28;20058;-63
2023/03/22 00:53:03;;;;;;;18.42;6.30;;;9.70;99.90;;;;;;4933803;28;20050;-62
2023/03/22 00:55:30;;;;;;;14.20;6.47;;;9.70;99.90;;;;;;4952033;28;20588;-62
2023/03/22 00:57:55;;;;;;;11.18;5.40;;;9.70;99.90;;;;;;4959831;28;20196;-61
2023/03/22 01:00:22;;;;;;;11.98;5.13;;;9.60;99.90;;;;;;4959504;28;20071;-62
2023/03/22 01:02:47;;;;;;;13.63;5.10;;;9.60;99.90;;;;;;4961330;28;21085;-62
2023/03/22 01:05:14;;;;;;;16.42;5.20;;;9.60;99.90;;;;;;4962306;28;20058;-62
2023/03/22 01:07:43;;;;;;;14.00;4.63;;;9.60;99.90;;;;;;4958816;28;20054;-61
2023/03/22 01:10:11;;;;;;;14.30;4.90;;;9.60;99.90;;;;;;4961182;28;20426;-62
2023/03/22 01:12:37;;;;;;;13.82;4.43;;;9.60;99.90;;;;;;4963289;28;20058;-63
2023/03/22 01:15:05;;;;;;;8.95;4.15;;;9.60;99.90;;;;;;4964864;28;20050;-61
2023/03/22 01:17:31;;;;;;;14.27;4.35;;;9.60;99.90;;;;;;4977776;28;20133;-63
2023/03/22 01:19:56;;;;;;;14.68;4.78;;;9.60;99.90;;;;;;4961670;28;20046;-63
2023/03/22 01:22:22;;;;;;;14.52;4.60;;;9.50;99.90;;;;;;4972298;28;20046;-62
2023/03/22 01:24:49;;;;;;;10.55;3.95;;;9.50;99.90;;;;;;4964385;28;20121;-63
2023/03/22 01:27:15;;;;;;;8.18;3.70;;;9.50;99.90;;;;;;4958446;28;20050;-61
2023/03/22 01:29:41;;;;;;;12.75;3.90;;;9.50;99.90;;;;;;4956932;28;20567;-61
2023/03/22 01:32:07;;;;;;;9.98;4.10;;;9.50;99.90;;;;;;4954588;28;20058;-62
2023/03/22 01:34:33;;;;;;;9.75;4.18;;;9.40;99.90;;;;;;4955472;28;20157;-62
2023/03/22 01:36:59;;;;;;;12.40;3.92;;;9.50;99.90;;;;;;4965642;28;20054;-63
2023/03/22 01:39:26;;;;;;;11.60;3.78;;;9.40;99.90;;;;;;4939928;28;20073;-64
2023/03/22 01:41:52;;;;;;;13.18;3.72;;;9.40;99.90;;;;;;4971448;28;20482;-62
2023/03/22 01:44:22;;;;;;;13.50;3.70;;;9.40;99.90;;;;;;4950610;28;20121;-62
2023/03/22 01:46:50;;;;;;;10.23;3.92;;;9.40;99.90;;;;;;4940350;28;20051;-62
2023/03/22 01:49:26;;;;;;;14.27;3.50;;;9.40;99.90;;;;;;4952131;28;20097;-61
2023/03/22 01:51:56;;;;;;;12.30;3.55;;;9.40;99.90;;;;;;4951845;28;20046;-63
2023/03/22 01:54:31;;;;;;;10.20;3.25;;;9.40;99.90;;;;;;4953622;28;20044;-61
2023/03/22 01:56:57;;;;;;;11.15;3.10;;;9.30;99.90;;;;;;4953561;28;20065;-62
2023/03/22 01:59:24;;;;;;;10.02;2.95;;;9.30;99.90;;;;;;4952844;28;20076;-61
2023/03/22 02:01:49;;;;;;;10.82;2.83;;;9.30;99.90;;;;;;4954154;28;20047;-61
2023/03/22 02:04:22;;;;;;;7.97;2.88;;;9.30;99.90;;;;;;4951914;28;20124;-61
2023/03/22 02:06:53;;;;;;;11.23;2.75;;;9.30;99.90;;;;;;4968501;28;20122;-63
2023/03/22 02:09:20;;;;;;;5.43;2.05;;;9.30;99.90;;;;;;4951478;28;20042;-62
2023/03/22 02:12:01;;;;;;;15.52;3.08;;;9.30;99.90;;;;;;4968326;28;20050;-62
2023/03/22 02:14:53;;;;;;;10.45;2.78;;;9.20;99.90;;;;;;4936395;28;20044;-63
2023/03/22 02:17:26;;;;;;;11.32;2.78;;;9.20;99.90;;;;;;4952043;28;20081;-62
2023/03/22 02:20:09;;;;;;;9.75;2.50;;;9.20;99.90;;;;;;4951270;28;20115;-62
2023/03/22 02:23:11;;;;;;;9.95;2.35;;;9.20;99.90;;;;;;4934402;28;20056;-62
2023/03/22 02:25:40;;;;;;;7.03;2.15;;;9.20;99.90;;;;;;4951826;28;20069;-62
2023/03/22 02:28:41;;;;;;;10.98;2.70;;;9.20;99.90;;;;;;4962964;28;20077;-61
2023/03/22 02:31:44;;;;;;;10.82;2.70;;;9.20;99.90;;;;;;4926649;28;20083;-61
2023/03/22 02:34:15;;;;;;;12.50;2.30;;;9.20;99.90;;;;;;4948329;28;20055;-62
2023/03/22 02:37:12;;;;;;;10.68;2.67;;;9.20;99.90;;;;;;4946155;28;20069;-61
2023/03/22 02:39:57;;;;;;;10.75;2.60;;;9.20;99.90;;;;;;4976732;28;20387;-63
2023/03/22 02:42:50;;;;;;;8.73;2.45;;;9.20;99.90;;;;;;4953436;28;20043;-62
2023/03/22 02:45:43;;;;;;;8.52;2.40;;;9.20;99.90;;;;;;4944544;28;20050;-63
2023/03/22 02:48:17;;;;;;;10.38;2.20;;;9.20;99.90;;;;;;4949817;28;20112;-62
2023/03/22 02:50:52;;;;;;;13.25;2.40;;;9.30;99.90;;;;;;4949997;28;20132;-62
2023/03/22 02:53:47;;;;;;;11.68;2.38;;;9.30;99.90;;;;;;4954948;28;20065;-61
2023/03/22 02:56:28;;;;;;;10.48;2.40;;;9.30;99.90;;;;;;4966189;28;20054;-62
2023/03/22 02:58:58;;;;;;;11.43;2.42;;;9.30;99.90;;;;;;4949268;28;20081;-62
2023/03/22 03:01:26;;;;;;;8.50;2.22;;;9.40;99.90;;;;;;4946204;28;20050;-62
2023/03/22 03:03:56;;;;;;;9.57;2.10;;;9.40;99.90;;;;;;4954864;28;20065;-62
2023/03/22 03:06:27;;;;;;;14.30;2.20;;;9.40;99.90;;;;;;4955301;28;20157;-61
2023/03/22 03:08:56;;;;;;;12.32;2.20;;;9.40;99.90;;;;;;4936915;28;20046;-62
2023/03/22 03:11:23;;;;;;;13.07;2.42;;;9.40;99.90;;;;;;4940268;28;20130;-62
2023/03/22 03:13:49;;;;;;;8.73;2.90;;;9.40;99.90;;;;;;4938046;28;20077;-62
2023/03/22 03:16:20;;;;;;;15.10;2.05;;;9.40;99.90;;;;;;4952967;28;20524;-62
2023/03/22 03:19:10;;;;;;;10.77;2.30;;;9.50;99.90;;;;;;4958916;28;20180;-61
2023/03/22 03:21:44;;;;;;;15.10;2.80;;;9.40;99.90;;;;;;4956971;28;20485;-61
2023/03/22 03:24:42;;;;;;;7.72;2.15;;;9.40;99.90;;;;;;4959263;28;20156;-62
2023/03/22 03:27:30;;;;;;;14.50;2.70;;;9.50;99.90;;;;;;4955646;28;20624;-63
2023/03/22 03:30:10;;;;;;;9.95;2.30;;;9.50;99.90;;;;;;4952765;28;20125;-63
2023/03/22 03:33:08;;;;;;;8.68;2.40;;;9.50;99.90;;;;;;4955202;28;20049;-62
2023/03/22 03:35:52;;;;;;;9.52;2.50;;;9.50;99.90;;;;;;4952386;28;20054;-63
2023/03/22 03:38:24;;;;;;;13.30;2.50;;;9.50;99.90;;;;;;4960321;28;20133;-63
2023/03/22 03:40:56;;;;;;;11.75;2.60;;;9.50;99.90;;;;;;4954701;28;20129;-61
2023/03/22 03:43:24;;;;;;;10.75;2.30;;;9.50;99.90;;;;;;4958156;28;20053;-62
2023/03/22 03:45:51;;;;;;;12.43;2.50;;;9.50;99.90;;;;;;4959017;28;20136;-61
2023/03/22 03:48:26;;;;;;;16.42;3.20;;;9.60;99.90;;;;;;4953469;28;20054;-62
2023/03/22 03:50:53;;;;;;;9.18;2.78;;;9.50;99.90;;;;;;4950218;28;20046;-62
2023/03/22 03:53:19;;;;;;;15.05;2.83;;;9.50;99.90;;;;;;4953720;28;20051;-62
2023/03/22 03:55:45;;;;;;;16.58;3.22;;;9.50;99.90;;;;;;4939756;28;20116;-63
2023/03/22 03:58:11;;;;;;;13.10;2.85;;;9.50;99.90;;;;;;4967014;28;20102;-62
2023/03/22 04:00:37;;;;;;;14.52;3.10;;;9.50;99.90;;;;;;4976470;28;20054;-62
2023/03/22 04:03:05;;;;;;;10.50;2.53;;;9.50;99.90;;;;;;4956123;28;20387;-62
2023/03/22 04:05:31;;;;;;;13.93;2.92;;;9.50;99.90;;;;;;4946774;28;20051;-63
2023/03/22 04:07:57;;;;;;;12.25;2.65;;;9.50;99.90;;;;;;4962453;28;20042;-62
2023/03/22 04:10:23;;;;;;;12.38;3.10;;;9.50;99.90;;;;;;4938683;28;20050;-63
2023/03/22 04:12:48;;;;;;;13.48;2.97;;;9.50;99.90;;;;;;4927891;28;20054;-63
2023/03/22 04:15:15;;;;;;;14.35;2.80;;;9.50;99.90;;;;;;4922788;28;20054;-62
2023/03/22 04:17:41;;;;;;;8.65;2.60;;;9.50;99.90;;;;;;4958061;28;20077;-62
2023/03/22 04:20:09;;;;;;;15.40;3.35;;;9.50;99.90;;;;;;4957425;28;20129;-62
2023/03/22 04:22:37;;;;;;;10.27;2.88;;;9.50;99.90;;;;;;4955508;28;20042;-62
2023/03/22 04:25:04;;;;;;;13.25;2.85;;;9.50;99.90;;;;;;4959557;28;20056;-62
2023/03/22 04:27:30;;;;;;;13.18;2.80;;;9.50;99.90;;;;;;4944322;28;20078;-62
2023/03/22 04:29:56;;;;;;;7.40;2.30;;;9.50;99.90;;;;;;4961023;28;20454;-62
2023/03/22 04:32:22;;;;;;;14.30;3.15;;;9.50;99.90;;;;;;4938214;28;20572;-62
2023/03/22 04:34:49;;;;;;;11.50;2.45;;;9.50;99.90;;;;;;4958753;28;20054;-62
2023/03/22 04:37:15;;;;;;;15.13;3.22;;;9.50;99.90;;;;;;4961286;28;20069;-62
2023/03/22 04:39:41;;;;;;;11.57;2.90;;;9.50;99.90;;;;;;4941385;28;20042;-62
2023/03/22 04:42:08;;;;;;;11.43;3.00;;;9.50;99.90;;;;;;4960529;28;20042;-61
2023/03/22 04:44:34;;;;;;;9.32;3.05;;;9.50;99.90;;;;;;4968366;28;20046;-62
2023/03/22 04:47:00;;;;;;;11.77;3.13;;;9.50;99.90;;;;;;4951682;28;20042;-62
2023/03/22 04:49:27;;;;;;;12.75;3.35;;;9.50;99.90;;;;;;4972405;28;20046;-62
2023/03/22 04:51:54;;;;;;;10.30;3.40;;;9.50;99.90;;;;;;4975140;28;20136;-62
2023/03/22 04:54:20;;;;;;;11.68;3.60;;;9.50;99.90;;;;;;4951492;28;20042;-61
2023/03/22 04:56:45;;;;;;;12.45;4.45;;;9.50;99.90;;;;;;4962719;28;20046;-63
2023/03/22 04:59:12;;;;;;;12.63;5.00;;;9.50;99.90;;;;;;4961530;28;20425;-62
2023/03/22 05:01:39;;;;;;;9.95;4.60;;;9.50;99.90;;;;;;4958050;28;20050;-62
2023/03/22 05:04:05;;;;;;;12.15;4.50;;;9.60;99.90;;;;;;4964269;28;20149;-63
2023/03/22 05:06:34;;;;;;;14.85;4.90;;;9.50;99.90;;;;;;4974865;28;20890;-62
2023/03/22 05:09:00;;;;;;;11.43;5.03;;;9.60;99.90;;;;;;4945175;28;20077;-63
2023/03/22 05:11:26;;;;;;;13.90;5.60;;;9.60;99.90;;;;;;4953242;28;20242;-61
2023/03/22 05:13:56;;;;;;;12.20;5.10;;;9.50;99.90;;;;;;4954652;28;20432;-62
2023/03/22 05:16:23;;;;;;;16.88;6.07;;;9.60;99.90;;;;;;4955354;28;20050;-62
2023/03/22 05:18:53;;;;;;;14.02;6.05;;;9.60;99.90;;;;;;4974786;28;20046;-61
2023/03/22 05:21:21;;;;;;;14.30;6.38;;;9.60;99.90;;;;;;4963127;28;20143;-62
2023/03/22 05:23:51;;;;;;;13.75;6.68;;;9.60;99.90;;;;;;4961705;28;21069;-62
2023/03/22 05:26:19;;;;;;;15.15;7.07;;;9.60;99.90;;;;;;4959619;28;20050;-63
2023/03/22 05:28:45;;;;;;;22.73;7.50;;;9.60;99.90;;;;;;4965630;28;20983;-62
2023/03/22 05:31:13;;;;;;;13.60;7.18;;;9.70;99.90;;;;;;4954849;28;20124;-62
2023/03/22 05:33:40;;;;;;;15.43;7.47;;;9.70;99.90;;;;;;4938300;28;20157;-63
2023/03/22 05:36:07;;;;;;;16.08;7.57;;;9.70;99.90;;;;;;4935809;28;20069;-62
2023/03/22 05:38:33;;;;;;;15.25;7.72;;;9.70;99.90;;;;;;4960559;28;20046;-61
2023/03/22 05:40:59;;;;;;;16.70;7.93;;;9.70;99.90;;;;;;4927455;28;20043;-62
2023/03/22 05:43:25;;;;;;;15.98;8.27;;;9.70;99.90;;;;;;4942468;28;20053;-61
2023/03/22 05:45:50;;;;;;;21.48;8.43;;;9.70;99.90;;;;;;4956985;28;20485;-62
2023/03/22 05:48:16;;;;;;;16.65;8.32;;;9.70;99.90;;;;;;4951546;28;20050;-63
2023/03/22 05:50:42;;;;;;;17.08;9.18;;;9.70;99.90;;;;;;4953037;28;20100;-62
2023/03/22 05:53:08;;;;;;;18.60;8.70;;;9.70;99.90;;;;;;4952528;28;20065;-62
2023/03/22 05:55:33;;;;;;;15.63;8.15;;;9.70;99.90;;;;;;4955107;28;20046;-62
2023/03/22 05:58:00;;;;;;;17.60;9.05;;;9.80;99.90;;;;;;4955305;28;20478;-62
2023/03/22 06:00:27;;;;;;;16.88;9.93;;;9.80;99.90;;;;;;4949830;28;20054;-64
2023/03/22 06:02:55;;;;;;;15.60;8.75;;;9.80;99.90;;;;;;4969785;28;20073;-62
2023/03/22 06:05:22;;;;;;;19.15;9.88;;;9.80;99.90;;;;;;4953195;28;20045;-62
2023/03/22 06:07:47;;;;;;;21.88;9.30;;;9.80;99.90;;;;;;4974971;28;20041;-62
2023/03/22 06:10:14;;;;;;;19.52;8.85;;;9.90;99.90;;;;;;4959571;28;20544;-62
2023/03/22 06:12:41;;;;;;;21.05;9.55;;;9.80;99.90;;;;;;4946144;28;20053;-62
2023/03/22 06:15:07;;;;;;;19.52;9.57;;;9.80;99.90;;;;;;4954318;28;20046;-62
2023/03/22 06:17:33;;;;;;;19.20;9.48;;;9.80;99.90;;;;;;4922673;28;21967;-63
2023/03/22 06:19:59;;;;;;;19.80;9.20;;;9.90;99.90;;;;;;4955383;28;20152;-63
2023/03/22 06:22:25;;;;;;;17.00;9.23;;;9.90;99.90;;;;;;4960420;28;20046;-63
2023/03/22 06:24:51;;;;;;;17.92;9.82;;;9.90;99.90;;;;;;4940200;28;20046;-62
2023/03/22 06:27:17;;;;;;;18.88;10.18;;;9.90;99.90;;;;;;4976453;28;20068;-62
2023/03/22 06:29:49;;;;;;;18.63;9.93;;;9.90;99.90;;;;;;4960100;28;20777;-62
2023/03/22 06:32:15;;;;;;;17.33;9.18;;;9.90;99.90;;;;;;4948911;28;20064;-62
2023/03/22 06:34:41;;;;;;;20.25;10.18;;;9.90;99.90;;;;;;4980024;28;20050;-62
2023/03/22 06:37:06;;;;;;;17.60;9.52;;;9.90;99.90;;;;;;4941102;28;20069;-62
2023/03/22 06:39:32;;;;;;;18.10;9.63;;;9.90;99.90;;;;;;4945298;28;20180;-62
2023/03/22 06:41:58;;;;;;;17.77;9.63;;;10.00;99.90;;;;;;4914584;28;20421;-62
2023/03/22 06:44:24;;;;;;;19.10;9.80;;;10.00;99.90;;;;;;4972906;28;20148;-63
2023/03/22 06:46:50;;;;;;;19.63;10.43;;;10.00;99.90;;;;;;4958897;28;20050;-62
2023/03/22 06:49:18;;;;;;;21.73;10.75;;;10.00;99.90;;;;;;4941655;28;20062;-62
2023/03/22 06:51:44;;;;;;;20.50;10.30;;;10.00;99.90;;;;;;4957233;28;20089;-62
2023/03/22 06:54:12;;;;;;;21.02;11.10;;;10.10;99.90;;;;;;4960136;28;20552;-63
2023/03/22 06:56:37;;;;;;;20.05;11.05;;;10.10;99.90;;;;;;4924777;28;20051;-62
2023/03/22 06:59:03;;;;;;;20.45;10.90;;;10.10;99.90;;;;;;4956681;28;20055;-63
2023/03/22 07:01:29;;;;;;;18.30;10.40;;;10.10;99.90;;;;;;4960240;28;20041;-62
2023/03/22 07:03:55;;;;;;;24.83;11.30;;;10.20;99.90;;;;;;4970154;28;20053;-63
2023/03/22 07:06:21;;;;;;;17.83;10.02;;;10.20;99.90;;;;;;4972792;28;20061;-62
2023/03/22 07:08:46;;;;;;;16.20;10.70;;;10.30;99.90;;;;;;4929420;28;20070;-63
2023/03/22 07:11:12;;;;;;;16.00;9.93;;;10.30;99.90;;;;;;4945862;28;20058;-62
2023/03/22 07:13:38;;;;;;;17.75;10.65;;;10.30;99.90;;;;;;4956693;28;20050;-62
2023/03/22 07:16:04;;;;;;;19.75;9.82;;;10.40;99.90;;;;;;4962203;28;20088;-62
2023/03/22 07:18:30;;;;;;;19.17;9.30;;;10.40;99.90;;;;;;4972189;28;20047;-62
2023/03/22 07:20:56;;;;;;;19.00;9.85;;;10.40;99.90;;;;;;4951402;28;20053;-62
2023/03/22 07:23:22;;;;;;;22.67;9.75;;;10.50;99.90;;;;;;4935316;28;20039;-62
2023/03/22 07:25:48;;;;;;;19.25;9.18;;;10.50;99.90;;;;;;4950640;28;20556;-62
2023/03/22 07:28:14;;;;;;;21.05;9.85;;;10.50;99.90;;;;;;4942872;28;20120;-63
2023/03/22 07:30:40;;;;;;;20.02;9.80;;;10.60;99.90;;;;;;4945481;28;20058;-61
2023/03/22 07:33:08;;;;;;;20.13;10.18;;;10.60;99.90;;;;;;4964799;28;20050;-62
2023/03/22 07:35:35;;;;;;;20.25;10.13;;;10.60;99.90;;;;;;4963581;28;20573;-62
2023/03/22 07:38:01;;;;;;;18.65;9.45;;;10.60;99.90;;;;;;4962133;28;20216;-63
2023/03/22 07:40:28;;;;;;;20.65;9.68;;;10.50;99.90;;;;;;4981374;28;20045;-63
2023/03/22 07:42:54;;;;;;;18.42;8.70;;;10.60;99.90;;;;;;4962310;28;20130;-62
2023/03/22 07:45:21;;;;;;;20.23;9.57;;;10.60;99.90;;;;;;4960428;28;20117;-62
2023/03/22 07:47:47;;;;;;;18.00;8.52;;;10.60;99.90;;;;;;4965125;28;20080;-63
2023/03/22 07:50:13;;;;;;;14.07;8.50;;;10.60;99.90;;;;;;4963287;28;20069;-63
2023/03/22 07:52:40;;;;;;;14.63;8.50;;;10.60;99.90;;;;;;4957157;28;20042;-61
2023/03/22 07:55:07;;;;;;;17.60;8.80;;;10.60;99.90;;;;;;4965413;28;20134;-62
2023/03/22 07:57:35;;;;;;;13.60;8.07;;;10.60;99.90;;;;;;4963296;28;20042;-62
2023/03/22 08:00:02;;;;;;;16.15;9.02;;;10.60;99.90;;;;;;4964352;28;20057;-62
2023/03/22 08:02:28;;;;;;;14.45;7.88;;;10.60;99.90;;;;;;4965850;28;20072;-62
2023/03/22 08:04:54;;;;;;;16.17;8.43;;;10.70;99.90;;;;;;4964652;28;20050;-62
2023/03/22 08:07:20;;;;;;;15.43;7.38;;;10.70;99.90;;;;;;4946969;28;20042;-62
2023/03/22 08:09:46;;;;;;;18.70;8.35;;;10.80;99.90;;;;;;4972342;28;20050;-62
2023/03/22 08:12:11;;;;;;;14.00;8.35;;;10.80;99.90;;;;;;4966346;28;20776;-61
2023/03/22 08:14:37;;;;;;;18.75;8.23;;;10.90;99.90;;;;;;4961276;28;20118;-62
2023/03/22 08:17:06;;;;;;;17.45;7.85;;;10.90;99.90;;;;;;4939696;28;20050;-62
2023/03/22 08:19:32;;;;;;;19.75;8.10;;;10.90;99.90;;;;;;4957245;28;20084;-63
2023/03/22 08:21:58;;;;;;;15.93;7.82;;;10.90;99.90;;;;;;4962874;28;20141;-62
2023/03/22 08:24:25;;;;;;;13.38;7.05;;;10.90;99.90;;;;;;4963092;28;20034;-62
2023/03/22 08:26:51;;;;;;;19.55;7.63;;;10.90;99.90;;;;;;4952472;28;20528;-62
2023/03/22 08:29:18;;;;;;;13.45;7.13;;;10.90;99.90;;;;;;4961462;28;20046;-62
2023/03/22 08:31:45;;;;;;;17.60;7.18;;;11.00;99.90;;;;;;4970966;28;20464;-63
2023/03/22 08:34:11;;;;;;;14.57;7.63;;;11.00;99.90;;;;;;4957674;28;20052;-62
2023/03/22 08:36:37;;;;;;;16.58;7.57;;;11.00;99.90;;;;;;4949677;28;20055;-63
2023/03/22 08:39:03;;;;;;;15.07;7.07;;;11.00;99.90;;;;;;4960453;28;20156;-62
2023/03/22 08:41:29;;;;;;;19.90;7.53;;;11.10;99.90;;;;;;4956015;28;20042;-62
2023/03/22 08:43:56;;;;;;;19.70;7.40;;;11.10;99.90;;;;;;4958796;28;20091;-63
2023/03/22 08:46:22;;;;;;;19.35;7.05;;;11.10;99.90;;;;;;4955354;28;20448;-63
2023/03/22 08:48:51;;;;;;;17.05;7.50;;;11.20;99.90;;;;;;4960032;28;20051;-62
2023/03/22 08:51:21;;;;;;;13.85;6.55;;;11.20;99.90;;;;;;4943287;28;20055;-62
2023/03/22 08:53:48;;;;;;;15.63;6.80;;;11.20;99.90;;;;;;4957051;28;20500;-62
2023/03/22 08:56:16;;;;;;;13.13;6.13;;;11.20;99.90;;;;;;4959017;28;20454;-62
2023/03/22 08:58:46;;;;;;;17.92;6.78;;;11.20;99.90;;;;;;4959108;28;20039;-63
2023/03/22 09:01:13;;;;;;;10.90;6.20;;;11.30;99.90;;;;;;4960449;28;20505;-64
2023/03/22 09:03:39;;;;;;;15.80;6.13;;;11.30;99.90;;;;;;4958876;28;20057;-62
2023/03/22 09:06:05;;;;;;;13.82;5.97;;;11.30;99.90;;;;;;4960240;28;20050;-62
2023/03/22 09:08:32;;;;;;;16.13;6.25;;;11.40;99.90;;;;;;4957103;28;20039;-62
2023/03/22 09:10:58;;;;;;;13.38;5.65;;;11.40;99.90;;;;;;4943497;28;20059;-63
2023/03/22 09:13:24;;;;;;;14.15;5.63;;;11.30;99.90;;;;;;4959867;28;20054;-62
2023/03/22 09:15:51;;;;;;;15.38;6.20;;;11.30;99.90;;;;;;4960037;28;20497;-63
2023/03/22 09:18:17;;;;;;;15.40;6.18;;;11.30;99.90;;;;;;4957813;28;20106;-61
2023/03/22 09:20:44;;;;;;;13.88;5.65;;;11.30;99.90;;;;;;4952177;28;20042;-63
2023/03/22 09:23:11;;;;;;;12.25;5.78;;;11.30;99.90;;;;;;4949726;28;20057;-61
2023/03/22 09:25:37;;;;;;;11.93;5.80;;;11.30;99.90;;;;;;4974333;28;20093;-64
2023/03/22 09:28:03;;;;;;;15.48;5.63;;;11.30;99.90;;;;;;4951352;28;20050;-62
2023/03/22 09:30:29;;;;;;;15.05;5.35;;;11.40;99.90;;;;;;4957821;28;20146;-62
2023/03/22 09:32:55;;;;;;;12.55;5.30;;;11.40;99.90;;;;;;4942231;28;20049;-62
2023/03/22 09:35:21;;;;;;;11.23;5.45;;;11.40;99.90;;;;;;4929719;28;20046;-64
2023/03/22 09:37:48;;;;;;;13.30;5.05;;;11.40;99.90;;;;;;4961318;28;20062;-63
2023/03/22 09:40:16;;;;;;;12.63;5.20;;;11.40;99.90;;;;;;4949877;28;20046;-62
2023/03/22 09:42:45;;;;;;;15.75;5.30;;;11.40;99.90;;;;;;4951212;28;20290;-62
2023/03/22 09:45:36;;;;;;;15.80;5.75;;;11.30;99.90;;;;;;4938467;28;20046;-62
2023/03/22 09:48:08;;;;;;;19.13;5.20;;;11.30;99.90;;;;;;4958059;28;20050;-62
2023/03/22 09:50:43;;;;;;;14.48;5.47;;;11.30;99.90;;;;;;4958531;28;20524;-63
2023/03/22 09:53:13;;;;;;;18.58;5.20;;;11.20;99.90;;;;;;4959098;28;20046;-63
2023/03/22 09:55:46;;;;;;;13.40;5.28;;;11.20;99.90;;;;;;4958018;28;20047;-62
2023/03/22 09:58:46;;;;;;;13.48;5.15;;;11.20;99.90;;;;;;4957382;28;20458;-62
2023/03/22 10:01:20;;;;;;;15.10;4.68;;;11.10;99.90;;;;;;4936720;28;20046;-61
2023/03/22 10:04:19;;;;;;;13.55;4.88;;;11.10;99.90;;;;;;4957447;28;20065;-62
2023/03/22 10:06:53;;;;;;;12.90;4.93;;;11.00;99.90;;;;;;4959738;28;20055;-63
2023/03/22 10:09:33;;;;;;;15.98;5.53;;;11.00;99.90;;;;;;4958005;28;20065;-63
2023/03/22 10:12:25;;;;;;;11.45;5.00;;;11.00;99.90;;;;;;4956394;28;20557;-63
2023/03/22 10:15:03;;;;;;;13.43;4.93;;;10.90;99.90;;;;;;4959957;28;20038;-62
2023/03/22 10:17:29;;;;;;;12.25;4.68;;;10.90;99.90;;;;;;4947555;28;20054;-64
2023/03/22 10:20:07;;;;;;;12.63;4.50;;;10.80;99.90;;;;;;4938542;28;20050;-63
2023/03/22 10:22:36;;;;;;;12.60;5.07;;;10.80;99.90;;;;;;4941512;28;20101;-62
2023/03/22 10:25:07;;;;;;;10.20;4.88;;;10.80;99.90;;;;;;4951201;28;20137;-63
2023/03/22 10:27:34;;;;;;;14.32;5.30;;;10.80;99.90;;;;;;4957567;28;20042;-63
2023/03/22 10:30:07;;;;;;;10.32;4.63;;;10.70;99.90;;;;;;4957500;28;20129;-61
2023/03/22 10:32:41;;;;;;;15.48;4.95;;;10.70;99.90;;;;;;4959932;28;20077;-62
2023/03/22 10:35:15;;;;;;;11.75;5.00;;;10.70;99.90;;;;;;4962082;28;20051;-63
2023/03/22 10:37:46;;;;;;;9.18;4.32;;;10.70;99.90;;;;;;4950396;28;20078;-63
2023/03/22 10:40:23;;;;;;;10.13;4.80;;;10.60;99.90;;;;;;4940895;28;20082;-62
2023/03/22 10:43:18;;;;;;;11.50;4.95;;;10.60;99.90;;;;;;4930626;28;20042;-62
2023/03/22 10:45:44;;;;;;;10.77;4.78;;;10.60;99.90;;;;;;4926927;28;20070;-62
2023/03/22 10:48:31;;;;;;;14.95;4.80;;;10.50;99.90;;;;;;4938186;28;20047;-62
2023/03/22 10:50:58;;;;;;;13.95;5.07;;;10.50;99.90;;;;;;4941560;28;20043;-62
2023/03/22 10:53:39;;;;;;;12.07;4.78;;;10.40;99.90;;;;;;4955663;28;20051;-62
2023/03/22 10:56:11;;;;;;;10.13;4.80;;;10.50;99.90;;;;;;4943427;28;20513;-62
2023/03/22 10:58:37;;;;;;;13.50;4.95;;;10.40;99.90;;;;;;4939384;28;20486;-62
2023/03/22 11:01:10;;;;;;;8.45;4.32;;;10.40;99.90;;;;;;4944202;28;20043;-62
2023/03/22 11:03:43;;;;;;;;;;;10.40;99.90;;;;;;4942053;28;20043;-62
2023/03/22 11:06:14;;;;;;;8.98;4.57;;;10.40;99.90;;;;;;4943730;28;19922;-63
2023/03/22 11:08:46;;;;;;;12.35;5.20;;;10.50;99.90;;;;;;4939221;28;20058;-62
2023/03/22 11:11:24;;;;;;;;;;;10.40;99.90;;;;;;4947795;28;20108;-63
2023/03/22 11:14:01;;;;;;;11.55;5.18;;;10.50;99.90;;;;;;4973187;28;20369;-62
2023/03/22 11:16:29;;;;;;;9.50;4.53;;;10.50;99.90;;;;;;4943999;28;20872;-62
2023/03/22 11:18:56;;;;;;;11.10;4.78;;;10.50;99.90;;;;;;4951467;28;20039;-62
2023/03/22 11:21:28;;;;;;;8.30;4.63;;;10.50;99.90;;;;;;4944775;28;20638;-63
2023/03/22 11:24:01;;;;;;;9.77;4.70;;;10.50;99.90;;;;;;4914241;28;20447;-63
2023/03/22 11:26:33;;;;;;;9.65;4.88;;;10.50;99.90;;;;;;4938705;28;20051;-63
2023/03/22 11:29:18;;;;;;;10.93;4.93;;;10.50;99.90;;;;;;4932459;28;20062;-63
2023/03/22 11:32:00;;;;;;;10.80;4.95;;;10.50;99.90;;;;;;4952289;28;20076;-62
2023/03/22 11:34:29;;;;;;;9.48;4.60;;;10.50;99.90;;;;;;4942924;28;20126;-63
2023/03/22 11:36:58;;;;;;;11.00;4.60;;;10.50;99.90;;;;;;4952422;28;20069;-61
2023/03/22 11:39:27;;;;;;;11.43;4.28;;;10.60;99.90;;;;;;4956378;28;20034;-62
2023/03/22 11:42:00;;;;;;;9.88;4.45;;;10.60;99.90;;;;;;4960520;28;20113;-63
2023/03/22 11:44:30;;;;;;;10.35;4.55;;;10.60;99.90;;;;;;4932727;28;20093;-64
2023/03/22 11:46:59;;;;;;;11.25;4.15;;;10.60;99.90;;;;;;4959431;28;20047;-63
2023/03/22 11:49:48;;;;;;;11.15;4.60;;;10.60;99.90;;;;;;4947228;28;20072;-62
2023/03/22 11:52:24;;;;;;;8.57;4.47;;;10.60;99.90;;;;;;4967330;28;20461;-62
2023/03/22 11:54:52;;;;;;;10.05;4.38;;;10.60;99.90;;;;;;4966240;28;20502;-62
2023/03/22 11:57:22;;;;;;;10.43;4.70;;;10.60;99.90;;;;;;4970880;28;20042;-62
2023/03/22 11:59:57;;;;;;;9.55;4.70;;;10.60;99.90;;;;;;4951121;28;20519;-63
2023/03/22 12:02:30;;;;;;;8.60;4.32;;;10.60;99.90;;;;;;4972393;28;20046;-61
2023/03/22 12:05:02;;;;;;;12.18;4.82;;;10.50;99.90;;;;;;4969406;28;20758;-62
2023/03/22 12:07:30;;;;;;;6.63;4.43;;;10.60;99.90;;;;;;4964030;28;20046;-62
2023/03/22 12:10:02;;;;;;;10.65;4.18;;;10.60;99.90;;;;;;4920028;28;20885;-63
2023/03/22 12:12:32;;;;;;;8.85;4.00;;;10.60;99.90;;;;;;4963714;28;20053;-62
2023/03/22 12:15:07;;;;;;;9.80;4.32;;;10.60;99.90;;;;;;4967278;28;20042;-63
2023/03/22 12:17:36;;;;;;;10.80;4.25;;;10.60;99.90;;;;;;4950860;28;20045;-63
2023/03/22 12:20:15;;;;;;;8.85;4.35;;;10.60;99.90;;;;;;4942375;28;20050;-62
2023/03/22 12:22:46;;;;;;;12.13;4.47;;;10.60;99.90;;;;;;4961761;28;20111;-63
2023/03/22 12:25:21;;;;;;;10.02;4.38;;;10.60;99.90;;;;;;4958235;28;20381;-62
2023/03/22 12:27:52;;;;;;;8.40;4.57;;;10.60;99.90;;;;;;4969283;28;20461;-62
2023/03/22 12:30:28;;;;;;;10.98;4.50;;;10.60;99.90;;;;;;4958796;28;20073;-63
2023/03/22 12:33:03;;;;;;;9.57;4.38;;;10.60;99.90;;;;;;4969434;28;20232;-62
2023/03/22 12:35:32;;;;;;;8.07;4.57;;;10.60;99.90;;;;;;4969566;28;20477;-62
2023/03/22 12:38:06;;;;;;;8.68;4.50;;;10.60;99.90;;;;;;4940586;28;20054;-62
2023/03/22 12:40:36;;;;;;;12.00;4.70;;;10.70;99.90;;;;;;4950438;28;20501;-62
2023/03/22 12:43:08;;;;;;;10.57;4.65;;;10.70;99.90;;;;;;4946755;28;20435;-62
2023/03/22 12:45:39;;;;;;;12.25;4.97;;;10.70;99.90;;;;;;4941222;28;20074;-63
2023/03/22 12:48:05;;;;;;;9.05;4.55;;;10.60;99.90;;;;;;4950126;28;20043;-62
2023/03/22 12:50:59;;;;;;;8.85;4.88;;;10.60;99.90;;;;;;4935899;28;20057;-63
2023/03/22 12:53:30;;;;;;;14.20;5.28;;;10.60;99.90;;;;;;4966936;28;20049;-63
2023/03/22 12:55:57;;;;;;;10.30;5.13;;;10.60;99.90;;;;;;4929586;28;20386;-62
2023/03/22 12:58:25;;;;;;;9.73;4.85;;;10.60;99.90;;;;;;4964867;28;20054;-63